createdAt,value
2019-05-22T00:00:05.683Z,18.13
2019-05-22T00:02:37.201Z,18.13
2019-05-22T00:05:14.565Z,18.33
2019-05-22T00:07:44.746Z,17.97
2019-05-22T00:10:18.983Z,18.17
2019-05-22T00:12:49.067Z,17.87
2019-05-22T00:15:21.169Z,17.83
2019-05-22T00:17:51.454Z,19.43
2019-05-22T00:20:23.315Z,18.77
2019-05-22T00:22:53.772Z,18.27
2019-05-22T00:25:27.097Z,19.83
2019-05-22T00:27:59.107Z,19.90
2019-05-22T00:30:32.100Z,19.73
2019-05-22T00:33:02.604Z,18.53
2019-05-22T00:35:34.464Z,18.40
2019-05-22T00:38:06.854Z,18.70
2019-05-22T00:40:42.816Z,18.80
2019-05-22T00:43:14.441Z,19.43
2019-05-22T00:45:45.814Z,18.93
2019-05-22T00:48:16.097Z,18.83
2019-05-22T00:50:53.503Z,19.00
2019-05-22T00:53:39.037Z,18.53
2019-05-22T00:56:25.947Z,17.90
2019-05-22T00:59:01.898Z,18.53
2019-05-22T01:01:37.308Z,18.87
2019-05-22T01:04:08.765Z,17.87
2019-05-22T01:06:38.777Z,17.77
2019-05-22T01:09:10.895Z,17.20
2019-05-22T01:11:42.700Z,17.13
2019-05-22T01:14:13.231Z,16.93
2019-05-22T01:16:43.690Z,18.27
2019-05-22T01:19:13.446Z,17.37
2019-05-22T01:21:45.143Z,17.00
2019-05-22T01:24:14.731Z,18.10
2019-05-22T01:26:46.535Z,16.60
2019-05-22T01:29:16.468Z,17.37
2019-05-22T01:31:50.702Z,17.77
2019-05-22T01:34:29.555Z,17.60
2019-05-22T01:37:04.597Z,17.07
2019-05-22T01:39:55.506Z,17.93
2019-05-22T01:42:30.607Z,16.97
2019-05-22T01:45:06.597Z,15.87
2019-05-22T01:47:42.515Z,16.73
2019-05-22T01:50:15.696Z,16.87
2019-05-22T01:52:45.987Z,17.53
2019-05-22T01:55:18.338Z,17.33
2019-05-22T01:57:49.787Z,16.30
2019-05-22T02:00:21.034Z,17.07
2019-05-22T02:02:53.248Z,16.80
2019-05-22T02:05:25.028Z,17.80
2019-05-22T02:07:55.539Z,16.97
2019-05-22T02:10:27.661Z,17.67
2019-05-22T02:12:59.198Z,16.93
2019-05-22T02:15:30.507Z,17.27
2019-05-22T02:18:01.942Z,16.23
2019-05-22T02:20:35.975Z,16.07
2019-05-22T02:23:07.278Z,17.73
2019-05-22T02:25:42.102Z,15.90
2019-05-22T02:28:12.767Z,16.30
2019-05-22T02:30:43.836Z,16.20
2019-05-22T02:33:17.967Z,16.27
2019-05-22T02:35:49.142Z,15.77
2019-05-22T02:38:18.835Z,15.67
2019-05-22T02:40:50.240Z,15.43
2019-05-22T02:43:21.733Z,16.23
2019-05-22T02:45:51.923Z,15.90
2019-05-22T02:48:22.467Z,15.70
2019-05-22T02:50:52.252Z,17.13
2019-05-22T02:53:23.638Z,15.77
2019-05-22T02:55:54.592Z,16.37
2019-05-22T02:58:25.288Z,15.80
2019-05-22T03:00:58.196Z,15.30
2019-05-22T03:03:30.961Z,17.27
2019-05-22T03:06:01.613Z,16.37
2019-05-22T03:08:53.924Z,15.70
2019-05-22T03:11:24.782Z,15.83
2019-05-22T03:13:59.653Z,16.57
2019-05-22T03:16:44.886Z,15.93
2019-05-22T03:19:17.641Z,15.80
2019-05-22T03:21:47.668Z,16.97
2019-05-22T03:24:17.518Z,15.37
2019-05-22T03:26:48.047Z,16.37
2019-05-22T03:29:19.783Z,16.07
2019-05-22T03:31:50.182Z,16.80
2019-05-22T03:34:21.398Z,16.57
2019-05-22T03:36:52.373Z,15.53
2019-05-22T03:39:22.212Z,15.90
2019-05-22T03:41:52.203Z,16.23
2019-05-22T03:44:23.989Z,15.93
2019-05-22T03:46:53.750Z,16.13
2019-05-22T03:49:30.409Z,17.53
2019-05-22T03:51:59.042Z,18.03
2019-05-22T03:54:28.787Z,16.67
2019-05-22T03:56:58.675Z,16.40
2019-05-22T03:59:28.567Z,15.30
2019-05-22T04:01:58.481Z,15.57
2019-05-22T04:04:40.267Z,14.43
2019-05-22T04:07:13.975Z,14.83
2019-05-22T04:09:44.651Z,15.03
2019-05-22T04:12:19.043Z,14.97
2019-05-22T04:14:49.625Z,15.57
2019-05-22T04:17:20.110Z,14.17
2019-05-22T04:19:51.630Z,15.73
2019-05-22T04:22:21.580Z,14.80
2019-05-22T04:24:51.173Z,16.63
2019-05-22T04:27:21.502Z,16.10
2019-05-22T04:29:52.235Z,16.13
2019-05-22T04:32:28.777Z,16.30
2019-05-22T04:34:58.605Z,15.63
2019-05-22T04:37:29.445Z,16.10
2019-05-22T04:40:33.148Z,15.17
2019-05-22T04:43:03.180Z,15.10
2019-05-22T04:45:33.016Z,15.30
2019-05-22T04:48:03.722Z,14.93
2019-05-22T04:50:33.716Z,15.57
2019-05-22T04:53:03.535Z,15.67
2019-05-22T04:55:33.992Z,15.90
2019-05-22T04:58:04.592Z,14.73
2019-05-22T05:00:35.472Z,14.70
2019-05-22T05:03:05.384Z,15.47
2019-05-22T05:05:39.456Z,15.20
2019-05-22T05:08:09.802Z,14.70
2019-05-22T05:10:41.207Z,15.37
2019-05-22T05:13:11.038Z,15.57
2019-05-22T05:15:41.645Z,15.13
2019-05-22T05:18:11.475Z,15.77
2019-05-22T05:20:41.176Z,14.43
2019-05-22T05:23:10.875Z,15.30
2019-05-22T05:25:41.936Z,14.80
2019-05-22T05:28:12.405Z,15.47
2019-05-22T05:30:42.120Z,14.53
2019-05-22T05:33:12.497Z,15.37
2019-05-22T05:35:44.050Z,14.70
2019-05-22T05:38:13.873Z,14.50
2019-05-22T05:40:44.076Z,14.90
2019-05-22T05:43:14.909Z,14.60
2019-05-22T05:45:46.401Z,14.93
2019-05-22T05:48:17.623Z,14.37
2019-05-22T05:51:04.982Z,14.27
2019-05-22T05:53:37.129Z,14.77
2019-05-22T05:56:13.977Z,14.83
2019-05-22T05:58:44.532Z,14.77
2019-05-22T06:01:21.701Z,15.03
2019-05-22T06:03:52.686Z,14.57
2019-05-22T06:06:51.505Z,15.63
2019-05-22T06:09:21.980Z,14.27
2019-05-22T06:11:53.651Z,15.30
2019-05-22T06:14:25.645Z,16.33
2019-05-22T06:17:34.299Z,18.63
2019-05-22T06:20:07.416Z,21.33
2019-05-22T06:22:38.080Z,16.37
2019-05-22T06:25:08.287Z,17.17
2019-05-22T06:27:53.055Z,17.13
2019-05-22T06:30:46.248Z,15.27
2019-05-22T06:33:29.394Z,15.43
2019-05-22T06:36:00.717Z,14.50
2019-05-22T06:38:51.781Z,15.50
2019-05-22T06:41:24.431Z,15.60
2019-05-22T06:44:11.861Z,15.57
2019-05-22T06:46:45.200Z,16.33
2019-05-22T06:49:36.287Z,17.17
2019-05-22T06:52:06.738Z,17.30
2019-05-22T06:54:36.983Z,17.30
2019-05-22T06:57:10.232Z,17.33
2019-05-22T06:59:41.072Z,16.93
2019-05-22T07:02:12.911Z,16.97
2019-05-22T07:04:43.539Z,17.17
2019-05-22T07:07:13.781Z,18.33
2019-05-22T07:09:44.710Z,16.90
2019-05-22T07:12:20.468Z,16.30
2019-05-22T07:15:11.154Z,16.60
2019-05-22T07:17:41.889Z,16.53
2019-05-22T07:20:13.140Z,18.20
2019-05-22T07:22:43.249Z,17.33
2019-05-22T07:25:13.111Z,17.93
2019-05-22T07:27:43.289Z,16.77
2019-05-22T07:30:13.409Z,17.13
2019-05-22T07:32:43.228Z,16.80
2019-05-22T07:35:13.308Z,17.43
2019-05-22T07:37:44.599Z,15.97
2019-05-22T07:40:14.587Z,16.97
2019-05-22T07:42:44.583Z,15.63
2019-05-22T07:45:14.472Z,15.63
2019-05-22T07:47:44.759Z,16.73
2019-05-22T07:50:14.444Z,16.40
2019-05-22T07:52:44.255Z,15.83
2019-05-22T07:55:14.174Z,16.47
2019-05-22T07:57:45.619Z,16.10
2019-05-22T08:00:15.045Z,15.60
2019-05-22T08:02:46.288Z,15.43
2019-05-22T08:05:16.567Z,14.73
2019-05-22T08:07:46.843Z,15.60
2019-05-22T08:10:17.848Z,15.80
2019-05-22T08:12:48.927Z,13.80
2019-05-22T08:15:19.544Z,14.47
2019-05-22T08:17:49.820Z,14.23
2019-05-22T08:20:19.485Z,13.50
2019-05-22T08:22:51.348Z,15.40
2019-05-22T08:25:21.145Z,13.60
2019-05-22T08:27:51.163Z,15.33
2019-05-22T08:30:20.731Z,13.60
2019-05-22T08:32:50.762Z,13.70
2019-05-22T08:35:20.486Z,14.40
2019-05-22T08:37:50.704Z,14.07
2019-05-22T08:40:20.880Z,14.33
2019-05-22T08:42:50.683Z,13.00
2019-05-22T08:45:21.301Z,15.13
2019-05-22T08:47:51.179Z,15.70
2019-05-22T08:50:22.458Z,12.40
2019-05-22T08:52:52.384Z,12.33
2019-05-22T08:55:22.463Z,12.43
2019-05-22T08:57:52.174Z,12.40
2019-05-22T09:00:23.196Z,12.90
2019-05-22T09:02:53.208Z,13.40
2019-05-22T09:05:23.423Z,11.23
2019-05-22T09:07:53.171Z,11.17
2019-05-22T09:10:26.209Z,13.20
2019-05-22T09:12:58.324Z,13.03
2019-05-22T09:15:28.889Z,17.70
2019-05-22T09:17:58.761Z,15.30
2019-05-22T09:20:28.430Z,12.80
2019-05-22T09:22:59.568Z,14.40
2019-05-22T09:25:29.315Z,11.97
2019-05-22T09:28:00.168Z,9.63
2019-05-22T09:30:30.438Z,10.43
2019-05-22T09:33:00.299Z,9.30
2019-05-22T09:35:29.927Z,8.53
2019-05-22T09:37:59.619Z,9.03
2019-05-22T09:40:30.031Z,8.43
2019-05-22T09:42:59.899Z,8.73
2019-05-22T09:45:29.599Z,9.00
2019-05-22T09:47:59.689Z,9.30
2019-05-22T09:50:29.467Z,8.50
2019-05-22T09:52:59.433Z,10.23
2019-05-22T09:55:29.410Z,9.67
2019-05-22T09:57:59.255Z,10.00
2019-05-22T10:00:29.892Z,12.30
2019-05-22T10:02:59.638Z,18.87
2019-05-22T10:05:30.044Z,17.00
2019-05-22T10:08:01.740Z,11.00
2019-05-22T10:10:32.079Z,11.87
2019-05-22T10:13:01.961Z,17.63
2019-05-22T10:15:32.395Z,16.20
2019-05-22T10:18:02.053Z,11.10
2019-05-22T10:20:31.938Z,10.80
2019-05-22T10:23:14.887Z,15.33
2019-05-22T10:25:33.430Z,11.40
2019-05-22T10:28:03.791Z,12.93
2019-05-22T10:30:33.513Z,16.33
2019-05-22T10:33:03.703Z,15.17
2019-05-22T10:35:34.566Z,13.60
2019-05-22T10:38:04.927Z,13.57
2019-05-22T10:40:34.762Z,10.90
2019-05-22T10:43:04.399Z,12.37
2019-05-22T10:45:34.333Z,10.87
2019-05-22T10:48:04.174Z,11.07
2019-05-22T10:50:34.104Z,11.87
2019-05-22T10:53:03.767Z,11.63
2019-05-22T10:55:33.784Z,10.10
2019-05-22T10:58:04.033Z,9.93
2019-05-22T11:00:33.840Z,10.97
2019-05-22T11:03:03.685Z,12.77
2019-05-22T11:05:33.531Z,13.40
2019-05-22T11:08:04.165Z,12.67
2019-05-22T11:10:34.447Z,10.97
2019-05-22T11:13:04.811Z,11.03
2019-05-22T11:15:34.907Z,11.63
2019-05-22T11:18:04.749Z,10.97
2019-05-22T11:20:35.441Z,11.43
2019-05-22T11:23:05.298Z,36.40
2019-05-22T11:25:35.296Z,26.33
2019-05-22T11:28:04.928Z,15.57
2019-05-22T11:30:35.743Z,12.07
2019-05-22T11:33:05.923Z,11.33
2019-05-22T11:35:36.035Z,12.50
2019-05-22T11:38:05.629Z,11.77
2019-05-22T11:40:35.628Z,39.40
2019-05-22T11:43:05.609Z,60.57
2019-05-22T11:45:35.566Z,31.70
2019-05-22T11:48:05.276Z,19.40
2019-05-22T11:50:35.505Z,15.10
2019-05-22T11:53:05.238Z,13.17
2019-05-22T11:55:45.112Z,12.33
2019-05-22T11:58:07.235Z,12.90
2019-05-22T12:00:36.979Z,13.30
2019-05-22T12:03:07.143Z,13.40
2019-05-22T12:05:37.173Z,13.37
2019-05-22T12:08:07.120Z,12.50
2019-05-22T12:10:37.060Z,12.50
2019-05-22T12:13:08.444Z,13.77
2019-05-22T12:15:38.059Z,12.80
2019-05-22T12:18:07.860Z,12.73
2019-05-22T12:20:37.448Z,13.90
2019-05-22T12:23:07.192Z,13.07
2019-05-22T12:25:37.127Z,13.93
2019-05-22T12:28:06.771Z,13.40
2019-05-22T12:30:36.979Z,67.73
2019-05-22T12:33:13.284Z,30.23
2019-05-22T12:35:41.019Z,18.30
2019-05-22T12:38:11.504Z,14.80
2019-05-22T12:40:41.547Z,15.93
2019-05-22T12:43:11.790Z,39.00
2019-05-22T12:45:41.387Z,29.80
2019-05-22T12:48:11.557Z,18.87
2019-05-22T12:50:41.435Z,17.17
2019-05-22T12:53:12.127Z,15.27
2019-05-22T12:55:41.756Z,15.53
2019-05-22T12:58:11.377Z,17.35
2019-05-22T13:00:41.104Z,31.10
2019-05-22T13:03:11.852Z,64.80
2019-05-22T13:05:41.483Z,67.60
2019-05-22T13:08:12.668Z,37.33
2019-05-22T13:10:43.079Z,22.90
2019-05-22T13:13:13.047Z,23.67
2019-05-22T13:15:43.134Z,17.50
2019-05-22T13:18:14.548Z,18.67
2019-05-22T13:20:45.221Z,19.37
2019-05-22T13:23:15.818Z,16.00
2019-05-22T13:25:45.692Z,16.00
2019-05-22T13:28:17.882Z,17.17
2019-05-22T13:30:49.651Z,15.30
2019-05-22T13:33:22.115Z,15.10
2019-05-22T13:35:51.949Z,14.73
2019-05-22T13:38:21.995Z,14.43
2019-05-22T13:40:51.926Z,13.03
2019-05-22T13:43:21.744Z,14.57
2019-05-22T13:45:51.855Z,14.73
2019-05-22T13:48:21.689Z,12.70
2019-05-22T13:50:51.632Z,12.70
2019-05-22T13:53:21.510Z,14.60
2019-05-22T13:55:51.656Z,13.93
2019-05-22T13:58:22.803Z,13.53
2019-05-22T14:00:52.401Z,15.40
2019-05-22T14:03:22.281Z,14.63
2019-05-22T14:05:53.433Z,13.83
2019-05-22T14:08:23.859Z,14.77
2019-05-22T14:10:53.551Z,14.33
2019-05-22T14:13:25.475Z,15.90
2019-05-22T14:15:57.259Z,14.80
2019-05-22T14:18:26.701Z,26.80
2019-05-22T14:20:57.636Z,37.63
2019-05-22T14:23:29.180Z,28.37
2019-05-22T14:25:59.061Z,22.53
2019-05-22T14:28:30.375Z,19.40
2019-05-22T14:31:00.311Z,18.80
2019-05-22T14:33:30.037Z,25.23
2019-05-22T14:36:00.886Z,26.97
2019-05-22T14:38:30.831Z,40.00
2019-05-22T14:41:01.352Z,35.33
2019-05-22T14:43:31.159Z,30.77
2019-05-22T14:46:00.846Z,26.00
2019-05-22T14:48:30.577Z,24.67
2019-05-22T14:51:00.515Z,17.87
2019-05-22T14:53:30.919Z,16.97
2019-05-22T14:56:00.581Z,16.93
2019-05-22T14:58:30.890Z,16.43
2019-05-22T15:01:00.648Z,17.50
2019-05-22T15:03:30.839Z,15.60
2019-05-22T15:06:00.734Z,14.07
2019-05-22T15:08:30.431Z,12.85
2019-05-22T15:11:00.462Z,15.65
2019-05-22T15:13:30.498Z,12.50
2019-05-22T15:16:00.560Z,12.98
2019-05-22T15:18:30.478Z,13.65
2019-05-22T15:21:01.395Z,11.53
2019-05-22T15:23:32.262Z,10.75
2019-05-22T15:26:02.891Z,10.50
2019-05-22T15:28:32.540Z,12.80
2019-05-22T15:31:03.560Z,11.65
2019-05-22T15:33:33.748Z,11.28
2019-05-22T15:36:08.953Z,12.35
2019-05-22T15:38:40.789Z,12.30
2019-05-22T15:41:11.379Z,10.13
2019-05-22T15:43:43.235Z,11.63
2019-05-22T15:46:13.915Z,12.23
2019-05-22T15:48:45.091Z,13.58
2019-05-22T15:51:16.482Z,45.03
2019-05-22T15:53:46.769Z,37.00
2019-05-22T15:56:17.930Z,18.90
2019-05-22T15:58:49.637Z,57.15
2019-05-22T16:01:21.809Z,45.60
2019-05-22T16:03:52.287Z,49.47
2019-05-22T16:06:24.185Z,48.53
2019-05-22T16:08:53.934Z,17.80
2019-05-22T16:11:25.503Z,16.32
2019-05-22T16:13:56.777Z,14.43
2019-05-22T16:16:26.781Z,14.67
2019-05-22T16:18:59.738Z,13.43
2019-05-22T16:21:31.231Z,11.60
2019-05-22T16:24:00.975Z,11.27
2019-05-22T16:26:30.764Z,10.70
2019-05-22T16:29:01.561Z,11.20
2019-05-22T16:31:32.595Z,11.70
2019-05-22T16:34:02.492Z,11.67
2019-05-22T16:36:32.911Z,10.63
2019-05-22T16:39:03.254Z,9.00
2019-05-22T16:41:33.588Z,9.23
2019-05-22T16:44:03.793Z,14.33
2019-05-22T16:46:33.726Z,11.63
2019-05-22T16:49:03.653Z,17.73
2019-05-22T16:51:34.011Z,11.37
2019-05-22T16:54:05.092Z,9.17
2019-05-22T16:56:36.010Z,9.27
2019-05-22T16:59:08.584Z,10.30
2019-05-22T17:01:56.996Z,9.73
2019-05-22T17:04:11.420Z,10.50
2019-05-22T17:06:44.647Z,9.93
2019-05-22T17:09:15.239Z,9.37
2019-05-22T17:11:45.880Z,9.30
2019-05-22T17:14:16.627Z,9.87
2019-05-22T17:16:47.473Z,9.67
2019-05-22T17:19:26.595Z,10.40
2019-05-22T17:21:49.734Z,10.57
2019-05-22T17:24:21.411Z,10.90
2019-05-22T17:26:52.437Z,10.47
2019-05-22T17:29:23.030Z,11.43
2019-05-22T17:31:53.160Z,11.00
2019-05-22T17:34:32.418Z,10.80
2019-05-22T17:37:09.578Z,16.17
2019-05-22T17:39:40.929Z,11.10
2019-05-22T17:42:12.475Z,10.67
2019-05-22T17:44:43.459Z,10.03
2019-05-22T17:47:13.365Z,11.00
2019-05-22T17:49:43.095Z,11.43
2019-05-22T17:52:13.350Z,11.30
2019-05-22T17:54:43.405Z,10.97
2019-05-22T17:57:13.801Z,10.73
2019-05-22T17:59:43.369Z,10.93
2019-05-22T18:02:14.739Z,11.80
2019-05-22T18:04:44.467Z,10.10
2019-05-22T18:07:15.854Z,10.90
2019-05-22T18:09:45.897Z,10.37
2019-05-22T18:12:15.795Z,10.33
2019-05-22T18:14:46.446Z,10.67
2019-05-22T18:17:16.401Z,11.07
2019-05-22T18:19:46.276Z,9.53
2019-05-22T18:22:16.824Z,9.87
2019-05-22T18:24:46.660Z,11.47
2019-05-22T18:27:16.453Z,11.87
2019-05-22T18:29:46.042Z,10.87
2019-05-22T18:32:16.102Z,11.93
2019-05-22T18:34:45.727Z,11.83
2019-05-22T18:37:15.523Z,11.27
2019-05-22T18:39:45.197Z,10.93
2019-05-22T18:42:15.299Z,11.43
2019-05-22T18:44:44.959Z,12.07
2019-05-22T18:47:14.651Z,11.17
2019-05-22T18:49:44.696Z,12.50
2019-05-22T18:52:14.297Z,14.50
2019-05-22T18:54:44.120Z,12.77
2019-05-22T18:57:14.818Z,12.97
2019-05-22T18:59:44.765Z,12.37
2019-05-22T19:02:14.734Z,10.40
2019-05-22T19:04:44.449Z,11.73
2019-05-22T19:07:14.183Z,10.83
2019-05-22T19:09:43.888Z,9.93
2019-05-22T19:12:13.814Z,11.77
2019-05-22T19:14:44.022Z,12.23
2019-05-22T19:17:14.043Z,12.10
2019-05-22T19:19:43.957Z,11.37
2019-05-22T19:22:14.161Z,12.07
2019-05-22T19:24:43.849Z,11.37
2019-05-22T19:27:13.610Z,12.47
2019-05-22T19:29:43.314Z,11.60
2019-05-22T19:32:13.227Z,10.70
2019-05-22T19:34:43.199Z,9.97
2019-05-22T19:37:13.030Z,9.77
2019-05-22T19:39:44.430Z,10.03
2019-05-22T19:42:15.513Z,9.80
2019-05-22T19:44:46.296Z,9.90
2019-05-22T19:47:16.338Z,10.30
2019-05-22T19:49:46.342Z,10.50
2019-05-22T19:52:21.573Z,10.40
2019-05-22T19:54:48.896Z,10.07
2019-05-22T19:57:19.034Z,10.20
2019-05-22T19:59:48.877Z,10.63
2019-05-22T20:02:18.564Z,9.77
2019-05-22T20:04:48.288Z,9.10
2019-05-22T20:07:18.003Z,8.93
2019-05-22T20:09:48.192Z,9.47
2019-05-22T20:12:18.944Z,10.10
2019-05-22T20:14:48.770Z,10.40
2019-05-22T20:17:18.567Z,9.97
2019-05-22T20:19:48.617Z,9.27
2019-05-22T20:22:18.595Z,9.83
2019-05-22T20:24:48.341Z,10.27
2019-05-22T20:27:20.624Z,10.80
2019-05-22T20:29:50.899Z,10.40
2019-05-22T20:32:25.316Z,9.90
2019-05-22T20:34:55.403Z,9.57
2019-05-22T20:37:25.108Z,10.17
2019-05-22T20:39:55.035Z,10.03
2019-05-22T20:42:25.490Z,9.83
2019-05-22T20:44:55.426Z,9.30
2019-05-22T20:47:26.749Z,8.70
2019-05-22T20:49:57.541Z,9.80
2019-05-22T20:52:28.135Z,11.30
2019-05-22T20:54:58.202Z,12.27
2019-05-22T20:57:28.168Z,9.97
2019-05-22T20:59:58.091Z,10.87
2019-05-22T21:02:29.792Z,9.80
2019-05-22T21:05:00.523Z,9.97
2019-05-22T21:07:33.078Z,10.03
2019-05-22T21:10:06.024Z,10.20
2019-05-22T21:12:37.060Z,9.77
2019-05-22T21:15:07.133Z,9.70
2019-05-22T21:17:38.258Z,10.27
2019-05-22T21:20:10.316Z,11.97
2019-05-22T21:22:40.687Z,13.30
2019-05-22T21:25:11.886Z,12.70
2019-05-22T21:27:42.375Z,11.27
2019-05-22T21:30:13.866Z,11.87
2019-05-22T21:32:44.159Z,11.17
2019-05-22T21:35:16.520Z,14.03
2019-05-22T21:37:46.104Z,14.10
2019-05-22T21:40:17.805Z,12.70
2019-05-22T21:42:47.490Z,12.37
2019-05-22T21:45:18.151Z,12.63
2019-05-22T21:47:47.842Z,11.63
2019-05-22T21:50:17.746Z,11.80
2019-05-22T21:52:47.498Z,11.93
2019-05-22T21:55:18.217Z,12.97
2019-05-22T21:57:47.854Z,11.63
2019-05-22T22:00:22.285Z,15.37
2019-05-22T22:02:54.619Z,11.17
2019-05-22T22:05:24.665Z,12.30
2019-05-22T22:07:54.616Z,13.90
2019-05-22T22:10:27.299Z,11.90
2019-05-22T22:12:57.806Z,11.93
2019-05-22T22:15:28.179Z,12.10
2019-05-22T22:17:57.824Z,12.67
2019-05-22T22:20:28.008Z,12.90
2019-05-22T22:22:58.019Z,13.03
2019-05-22T22:25:28.677Z,13.73
2019-05-22T22:27:58.304Z,14.80
2019-05-22T22:30:33.883Z,13.30
2019-05-22T22:33:07.715Z,14.33
2019-05-22T22:35:38.858Z,14.47
2019-05-22T22:38:08.915Z,13.90
2019-05-22T22:40:40.704Z,13.50
2019-05-22T22:43:12.267Z,12.77
2019-05-22T22:45:49.616Z,13.27
2019-05-22T22:48:22.794Z,14.07
2019-05-22T22:50:52.776Z,13.43
2019-05-22T22:53:22.703Z,14.70
2019-05-22T22:55:53.347Z,14.03
2019-05-22T22:58:23.402Z,14.37
2019-05-22T23:00:54.999Z,14.03
2019-05-22T23:03:27.054Z,13.63
2019-05-22T23:05:56.947Z,14.00
2019-05-22T23:08:29.399Z,15.27
2019-05-22T23:11:00.061Z,14.80
2019-05-22T23:13:29.962Z,14.70
2019-05-22T23:16:00.227Z,13.00
2019-05-22T23:18:54.821Z,13.90
2019-05-22T23:21:25.518Z,14.77
2019-05-22T23:23:55.167Z,14.50
2019-05-22T23:26:25.909Z,14.13
2019-05-22T23:28:56.062Z,15.10
2019-05-22T23:31:25.736Z,15.07
2019-05-22T23:33:56.428Z,14.30
2019-05-22T23:36:26.387Z,15.23
2019-05-22T23:38:59.462Z,15.33
2019-05-22T23:41:32.392Z,13.87
2019-05-22T23:44:02.242Z,14.13
2019-05-22T23:46:32.323Z,15.70
2019-05-22T23:49:02.742Z,15.03
2019-05-22T23:51:32.903Z,15.40
2019-05-22T23:54:03.555Z,15.93
2019-05-22T23:56:34.752Z,15.57
2019-05-22T23:59:04.546Z,14.77
